Time;durP1;ratioP1;P1;durP2;ratioP2;P2;SDS_P1;SDS_P2;PMS_P1;PMS_P2;Temp;Humidity;BMP_temperature;BMP_pressure;BME280_temperature;BME280_humidity;BME280_pressure;Samples;Min_cycle;Max_cycle;Signal;HPM_P1;HPM_P2
2023/07/01 00:01:55;;;;;;;16.45;3.20;;;15.60;99.90;;;;;;5082256;28;20393;-93
2023/07/01 00:04:20;;;;;;;4.10;2.10;;;15.60;99.90;;;;;;5080271;28;20069;-90
2023/07/01 00:06:46;;;;;;;8.65;2.28;;;15.60;99.90;;;;;;5074809;28;20028;-89
2023/07/01 00:09:11;;;;;;;6.80;3.03;;;15.60;99.90;;;;;;5079350;28;20046;-88
2023/07/01 00:11:38;;;;;;;8.63;2.85;;;15.60;99.90;;;;;;5080375;28;20055;-96
2023/07/01 00:14:04;;;;;;;7.95;2.20;;;15.60;99.90;;;;;;5086050;28;20028;-93
2023/07/01 00:16:30;;;;;;;10.50;3.00;;;15.60;99.90;;;;;;5081192;28;20021;-91
2023/07/01 00:19:04;;;;;;;8.13;2.50;;;15.60;99.90;;;;;;5078115;28;20034;-88
2023/07/01 00:21:30;;;;;;;8.35;2.42;;;15.60;99.90;;;;;;5079085;28;20023;-89
2023/07/01 00:23:55;;;;;;;6.97;2.03;;;15.60;99.90;;;;;;5063972;28;20031;-88
2023/07/01 00:26:20;;;;;;;6.65;2.35;;;15.60;99.90;;;;;;5080460;28;20023;-89
2023/07/01 00:28:46;;;;;;;11.88;2.72;;;15.60;99.90;;;;;;5080687;28;20031;-89
2023/07/01 00:31:11;;;;;;;8.20;2.35;;;15.60;99.90;;;;;;5065838;28;20336;-94
2023/07/01 00:33:37;;;;;;;11.40;3.20;;;15.60;99.90;;;;;;5076218;28;20498;-88
2023/07/01 00:36:06;;;;;;;12.70;2.60;;;15.60;99.90;;;;;;5084448;28;20031;-88
2023/07/01 00:38:31;;;;;;;7.03;2.35;;;15.60;99.90;;;;;;5075423;28;20062;-88
2023/07/01 00:41:03;;;;;;;6.32;2.22;;;15.60;99.90;;;;;;5082912;28;20058;-90
2023/07/01 00:43:28;;;;;;;7.28;2.78;;;15.60;99.90;;;;;;5084282;28;20397;-90
2023/07/01 00:46:03;;;;;;;3.90;2.10;;;15.50;99.90;;;;;;5079424;28;20028;-88
2023/07/01 00:48:29;;;;;;;7.85;2.10;;;15.50;99.90;;;;;;5078029;28;20025;-88
2023/07/01 00:50:55;;;;;;;8.82;2.53;;;15.50;99.90;;;;;;5084970;28;20051;-94
2023/07/01 00:53:21;;;;;;;7.85;2.15;;;15.50;99.90;;;;;;5078989;28;20032;-89
2023/07/01 00:55:47;;;;;;;4.90;2.47;;;15.50;99.90;;;;;;5083838;28;20028;-89
2023/07/01 00:58:13;;;;;;;7.43;2.40;;;15.50;99.90;;;;;;5079907;28;20492;-91
2023/07/01 01:00:39;;;;;;;5.28;1.92;;;15.50;99.90;;;;;;5077367;28;20127;-88
2023/07/01 01:03:21;;;;;;;10.20;2.55;;;15.40;99.90;;;;;;5077559;28;20108;-89
2023/07/01 01:06:10;;;;;;;6.13;2.35;;;15.40;99.90;;;;;;5084483;28;20059;-91
2023/07/01 01:08:52;;;;;;;9.77;2.70;;;15.40;99.90;;;;;;5078418;28;20029;-89
2023/07/01 01:11:19;;;;;;;8.02;2.85;;;15.40;99.90;;;;;;5079936;28;20024;-89
2023/07/01 01:13:45;;;;;;;6.30;2.33;;;15.40;99.90;;;;;;5080412;28;20049;-89
2023/07/01 01:16:11;;;;;;;9.85;3.22;;;15.40;99.90;;;;;;5080040;28;20032;-89
2023/07/01 01:18:37;;;;;;;4.97;1.88;;;15.30;99.90;;;;;;5095621;28;20485;-90
2023/07/01 01:21:06;;;;;;;9.50;2.42;;;15.30;99.90;;;;;;5087101;28;20134;-89
2023/07/01 01:24:03;;;;;;;5.30;2.15;;;15.30;99.90;;;;;;5081667;28;20032;-90
2023/07/01 01:26:38;;;;;;;8.82;2.42;;;15.40;99.90;;;;;;5084335;28;20036;-90
2023/07/01 01:29:06;;;;;;;14.27;3.00;;;15.40;99.90;;;;;;5086762;28;20072;-91
2023/07/01 01:31:32;;;;;;;7.80;2.20;;;15.40;99.90;;;;;;5084548;28;20052;-88
2023/07/01 01:33:57;;;;;;;9.15;2.17;;;15.30;99.90;;;;;;5087843;28;20092;-86
2023/07/01 01:36:53;;;;;;;9.60;2.20;;;15.30;99.90;;;;;;5081790;28;20024;-89
2023/07/01 01:39:24;;;;;;;4.18;1.88;;;15.30;99.90;;;;;;5080626;28;20461;-88
2023/07/01 01:42:03;;;;;;;10.90;2.60;;;15.40;99.90;;;;;;5081092;28;20123;-87
2023/07/01 01:44:52;;;;;;;6.07;2.00;;;15.40;99.90;;;;;;5080057;28;20028;-90
2023/07/01 01:47:28;;;;;;;9.88;2.30;;;15.40;99.90;;;;;;5086823;28;20032;-87
2023/07/01 01:50:02;;;;;;;10.25;2.50;;;15.40;99.90;;;;;;5084452;28;20036;-87
2023/07/01 01:52:28;;;;;;;6.15;2.03;;;15.30;99.90;;;;;;5078611;28;20515;-93
2023/07/01 01:55:03;;;;;;;7.97;2.20;;;15.30;99.90;;;;;;5080228;28;20107;-92
2023/07/01 01:57:29;;;;;;;9.85;2.33;;;15.30;99.90;;;;;;5063541;28;20127;-89
2023/07/01 01:59:55;;;;;;;5.85;2.05;;;15.30;99.90;;;;;;5083714;28;20032;-89
2023/07/01 02:02:20;;;;;;;6.00;2.20;;;15.30;99.90;;;;;;5087114;28;20020;-87
2023/07/01 02:04:46;;;;;;;7.82;2.42;;;15.20;99.90;;;;;;5082495;28;20583;-88
2023/07/01 02:07:11;;;;;;;9.95;2.45;;;15.30;99.90;;;;;;5081121;28;20025;-86
2023/07/01 02:09:37;;;;;;;6.00;2.08;;;15.20;99.90;;;;;;5078145;28;20048;-88
2023/07/01 02:12:08;;;;;;;4.93;2.10;;;15.20;99.90;;;;;;5082320;28;20028;-87
2023/07/01 02:14:34;;;;;;;10.15;2.03;;;15.20;99.90;;;;;;5086161;28;20088;-88
2023/07/01 02:17:02;;;;;;;8.90;2.15;;;15.20;99.90;;;;;;5085761;28;20024;-88
2023/07/01 02:19:28;;;;;;;5.38;1.67;;;15.20;99.90;;;;;;5078490;28;20158;-88
2023/07/01 02:21:54;;;;;;;10.77;2.10;;;15.20;99.90;;;;;;5068020;28;20115;-88
2023/07/01 02:24:19;;;;;;;8.25;1.60;;;15.10;99.90;;;;;;5079001;28;20024;-90
2023/07/01 02:26:45;;;;;;;9.15;2.22;;;15.20;99.90;;;;;;5087541;28;20028;-90
2023/07/01 02:29:10;;;;;;;8.35;2.25;;;15.10;99.90;;;;;;5080413;28;20503;-85
2023/07/01 02:31:36;;;;;;;5.50;1.95;;;15.10;99.90;;;;;;5085266;28;20538;-88
2023/07/01 02:34:02;;;;;;;9.10;2.28;;;15.10;99.90;;;;;;5072514;28;20505;-90
2023/07/01 02:36:28;;;;;;;8.13;1.83;;;15.00;99.90;;;;;;5087928;28;20036;-89
2023/07/01 02:38:54;;;;;;;7.60;2.20;;;15.00;99.90;;;;;;5088475;28;20362;-89
2023/07/01 02:41:19;;;;;;;6.13;2.60;;;15.10;99.90;;;;;;5079598;28;20023;-88
2023/07/01 02:43:45;;;;;;;11.70;2.28;;;15.10;99.90;;;;;;5086426;28;20493;-89
2023/07/01 02:46:10;;;;;;;10.93;2.33;;;15.10;99.90;;;;;;5064698;28;20020;-87
2023/07/01 02:48:36;;;;;;;10.15;2.78;;;15.00;99.90;;;;;;5084764;28;20118;-88
2023/07/01 02:51:07;;;;;;;10.05;2.47;;;15.10;99.90;;;;;;5085363;28;20084;-86
2023/07/01 02:53:33;;;;;;;6.30;2.38;;;15.10;99.90;;;;;;5085230;28;20501;-87
2023/07/01 02:56:03;;;;;;;9.52;2.08;;;15.10;99.90;;;;;;5084306;28;20028;-89
2023/07/01 02:58:28;;;;;;;4.38;2.17;;;15.20;99.90;;;;;;5085412;28;20028;-90
2023/07/01 03:00:54;;;;;;;7.70;1.83;;;15.20;99.90;;;;;;5084093;28;20081;-91
2023/07/01 03:03:19;;;;;;;8.25;2.08;;;15.10;99.90;;;;;;5081766;28;20127;-91
2023/07/01 03:05:45;;;;;;;8.43;1.92;;;15.20;99.90;;;;;;5086677;28;20032;-87
2023/07/01 03:08:11;;;;;;;9.35;2.22;;;15.20;99.90;;;;;;5079641;28;20065;-87
2023/07/01 03:10:36;;;;;;;7.28;2.45;;;15.20;99.90;;;;;;5080631;28;20534;-88
2023/07/01 03:13:02;;;;;;;3.47;2.20;;;15.20;99.90;;;;;;5077701;28;20028;-88
2023/07/01 03:15:28;;;;;;;6.82;2.53;;;15.20;99.90;;;;;;5076739;28;20473;-85
2023/07/01 03:17:54;;;;;;;8.60;2.20;;;15.20;99.90;;;;;;5080497;28;20031;-88
2023/07/01 03:20:25;;;;;;;6.63;2.67;;;15.20;99.90;;;;;;5078584;28;20027;-93
2023/07/01 03:22:51;;;;;;;7.43;2.10;;;15.20;99.90;;;;;;5081083;28;20023;-88
2023/07/01 03:25:17;;;;;;;7.03;2.00;;;15.20;99.90;;;;;;5083452;28;20020;-87
2023/07/01 03:27:44;;;;;;;9.02;2.50;;;15.30;99.90;;;;;;5070998;28;20030;-87
2023/07/01 03:30:14;;;;;;;8.82;2.42;;;15.30;99.90;;;;;;5077154;28;20036;-89
2023/07/01 03:32:44;;;;;;;9.98;1.92;;;15.30;99.90;;;;;;5083919;28;20040;-88
2023/07/01 03:35:10;;;;;;;7.88;1.95;;;15.30;99.90;;;;;;5079953;28;20561;-89
2023/07/01 03:37:40;;;;;;;8.73;2.05;;;15.30;99.90;;;;;;5086242;28;20032;-89
2023/07/01 03:40:10;;;;;;;3.75;2.20;;;15.30;99.90;;;;;;5083981;28;20023;-91
2023/07/01 03:42:39;;;;;;;3.53;1.98;;;15.30;99.90;;;;;;5086987;28;20024;-91
2023/07/01 03:45:07;;;;;;;7.78;2.10;;;15.40;99.90;;;;;;5080054;28;20115;-91
2023/07/01 03:47:34;;;;;;;3.85;1.95;;;15.30;99.90;;;;;;5070707;28;20095;-92
2023/07/01 03:50:02;;;;;;;7.32;2.30;;;15.30;99.90;;;;;;5092952;28;20118;-88
2023/07/01 03:52:28;;;;;;;3.65;1.58;;;15.20;99.90;;;;;;5074761;28;20376;-91
2023/07/01 03:54:53;;;;;;;9.55;2.42;;;15.30;99.90;;;;;;5089869;28;20028;-93
2023/07/01 03:57:19;;;;;;;4.13;2.00;;;15.20;99.90;;;;;;5079342;28;20092;-92
2023/07/01 03:59:45;;;;;;;3.67;2.20;;;15.20;99.90;;;;;;5081605;28;20034;-92
2023/07/01 04:02:11;;;;;;;8.48;1.90;;;15.20;99.90;;;;;;5082094;28;20546;-89
2023/07/01 04:04:38;;;;;;;6.78;1.80;;;15.20;99.90;;;;;;5079762;28;20086;-91
2023/07/01 04:07:05;;;;;;;5.80;1.77;;;15.20;99.90;;;;;;5086980;28;20032;-91
2023/07/01 04:09:30;;;;;;;9.45;2.65;;;15.20;99.90;;;;;;5087822;28;20078;-91
2023/07/01 04:11:56;;;;;;;5.03;2.42;;;15.20;99.90;;;;;;5084438;28;20537;-92
2023/07/01 04:14:24;;;;;;;2.95;1.70;;;15.20;99.90;;;;;;5083743;28;20035;-91
2023/07/01 04:16:50;;;;;;;4.90;1.73;;;15.30;99.90;;;;;;5065790;28;20039;-93
2023/07/01 04:19:16;;;;;;;2.72;1.50;;;15.30;99.90;;;;;;5080571;28;20032;-93
2023/07/01 04:21:41;;;;;;;5.78;2.17;;;15.30;99.90;;;;;;5086363;28;20024;-92
2023/07/01 04:24:07;;;;;;;6.70;1.92;;;15.30;99.90;;;;;;5077332;28;20430;-91
2023/07/01 04:26:34;;;;;;;6.35;2.10;;;15.40;99.90;;;;;;5086076;28;20028;-90
2023/07/01 04:29:00;;;;;;;4.78;1.65;;;15.40;99.90;;;;;;5088451;28;20031;-92
2023/07/01 04:31:29;;;;;;;4.80;1.98;;;15.40;99.90;;;;;;5086489;28;20055;-94
2023/07/01 04:33:55;;;;;;;6.13;1.90;;;15.40;99.90;;;;;;5084905;28;20468;-94
2023/07/01 04:36:21;;;;;;;3.35;1.92;;;15.50;99.90;;;;;;5081349;28;20028;-92
2023/07/01 04:38:47;;;;;;;7.63;1.70;;;15.50;99.90;;;;;;5082739;28;20536;-93
2023/07/01 04:41:13;;;;;;;3.38;1.80;;;15.60;99.90;;;;;;5085964;28;20112;-95
2023/07/01 04:43:39;;;;;;;11.73;2.00;;;15.50;99.90;;;;;;5084936;28;20465;-94
2023/07/01 04:46:05;;;;;;;15.05;3.30;;;15.60;99.90;;;;;;5087828;28;20024;-95
2023/07/01 04:48:30;;;;;;;9.23;2.60;;;15.60;99.90;;;;;;5089059;28;20035;-94
2023/07/01 04:50:56;;;;;;;11.43;3.08;;;15.60;99.90;;;;;;5088567;28;20056;-96
2023/07/01 04:53:22;;;;;;;6.32;3.08;;;15.60;99.90;;;;;;5080126;28;20107;-95
2023/07/01 04:55:48;;;;;;;4.55;2.40;;;15.60;99.90;;;;;;5066123;28;20036;-93
2023/07/01 04:58:14;;;;;;;4.68;2.30;;;15.60;99.90;;;;;;5088362;28;20477;-92
2023/07/01 05:00:40;;;;;;;4.85;2.25;;;15.60;99.90;;;;;;5083242;28;20115;-95
2023/07/01 05:03:06;;;;;;;3.45;2.03;;;15.60;99.90;;;;;;5069359;28;20024;-92
2023/07/01 05:05:32;;;;;;;5.15;2.40;;;15.70;99.90;;;;;;5083885;28;20389;-94
2023/07/01 05:07:57;;;;;;;12.13;2.58;;;15.70;99.90;;;;;;5082254;28;20037;-96
2023/07/01 05:10:23;;;;;;;4.10;2.30;;;15.70;99.90;;;;;;5079652;28;20469;-95
2023/07/01 05:12:51;;;;;;;3.17;2.00;;;15.70;99.90;;;;;;5078401;28;20481;-93
2023/07/01 05:15:18;;;;;;;6.50;2.35;;;15.90;99.90;;;;;;5085493;28;20024;-93
2023/07/01 05:17:44;;;;;;;7.40;2.38;;;15.80;99.90;;;;;;5085347;28;20031;-93
2023/07/01 05:20:10;;;;;;;3.00;1.92;;;15.90;99.90;;;;;;5084837;28;20456;-95
2023/07/01 05:22:36;;;;;;;3.70;2.25;;;16.00;99.90;;;;;;5079845;28;20025;-94
2023/07/01 05:25:03;;;;;;;2.80;1.80;;;16.00;99.90;;;;;;5080572;28;20028;-93
2023/07/01 05:27:30;;;;;;;7.43;1.75;;;16.10;99.90;;;;;;5075947;28;20521;-91
2023/07/01 05:29:56;;;;;;;12.00;2.88;;;16.10;99.90;;;;;;5079396;28;20042;-91
2023/07/01 05:32:22;;;;;;;6.15;1.92;;;16.20;99.90;;;;;;5086207;28;20059;-90
2023/07/01 05:34:47;;;;;;;12.38;2.53;;;16.30;99.90;;;;;;5080396;28;20008;-90
2023/07/01 05:37:13;;;;;;;6.18;2.55;;;16.40;99.90;;;;;;5082709;28;20435;-91
2023/07/01 05:39:38;;;;;;;8.55;2.92;;;16.50;99.90;;;;;;5078574;28;20468;-87
2023/07/01 05:42:04;;;;;;;4.50;1.92;;;16.60;99.90;;;;;;5080134;28;20032;-88
2023/07/01 05:44:30;;;;;;;9.90;3.25;;;16.80;99.90;;;;;;5078452;28;20056;-86
2023/07/01 05:46:56;;;;;;;5.28;2.30;;;16.80;99.90;;;;;;5087899;28;20514;-85
2023/07/01 05:49:21;;;;;;;5.25;2.15;;;16.90;99.90;;;;;;5077619;28;20044;-88
2023/07/01 05:51:47;;;;;;;5.47;1.75;;;17.00;99.90;;;;;;5074548;28;20447;-84
2023/07/01 05:54:12;;;;;;;8.75;2.10;;;17.10;99.90;;;;;;5085931;28;20044;-88
2023/07/01 05:56:38;;;;;;;9.10;2.15;;;17.20;99.90;;;;;;5083003;28;20055;-84
2023/07/01 05:59:03;;;;;;;4.93;2.13;;;17.20;99.90;;;;;;5085492;28;20472;-85
2023/07/01 06:01:29;;;;;;;14.88;3.13;;;17.20;99.90;;;;;;5080337;28;20028;-87
2023/07/01 06:03:55;;;;;;;10.38;2.83;;;17.30;99.90;;;;;;5080401;28;20389;-88
2023/07/01 06:06:21;;;;;;;9.85;4.20;;;17.30;99.90;;;;;;5081513;28;20025;-85
2023/07/01 06:08:47;;;;;;;10.35;2.78;;;17.30;99.90;;;;;;5092204;28;20027;-81
2023/07/01 06:11:13;;;;;;;7.82;2.30;;;17.50;99.90;;;;;;5084700;28;20506;-86
2023/07/01 06:13:44;;;;;;;8.35;2.90;;;17.50;99.90;;;;;;5089179;28;20054;-89
2023/07/01 06:16:10;;;;;;;9.05;2.63;;;17.50;99.90;;;;;;5093143;28;20031;-88
2023/07/01 06:18:35;;;;;;;6.70;3.08;;;17.60;99.90;;;;;;5083967;28;20029;-84
2023/07/01 06:21:03;;;;;;;9.10;2.67;;;17.70;99.90;;;;;;5083262;28;20032;-84
2023/07/01 06:23:30;;;;;;;15.10;2.83;;;17.70;99.90;;;;;;5088043;28;20085;-85
2023/07/01 06:25:56;;;;;;;8.52;2.63;;;17.70;99.90;;;;;;5090764;28;20055;-90
2023/07/01 06:28:22;;;;;;;7.40;2.72;;;17.70;99.90;;;;;;5090457;28;20472;-90
2023/07/01 06:30:48;;;;;;;14.77;3.03;;;17.70;99.90;;;;;;5089013;28;20351;-90
2023/07/01 06:33:14;;;;;;;8.68;2.85;;;17.70;99.90;;;;;;5084915;28;20024;-95
2023/07/01 06:35:42;;;;;;;11.02;2.60;;;17.60;99.90;;;;;;5069864;28;20028;-90
2023/07/01 06:38:11;;;;;;;10.43;3.05;;;17.60;99.90;;;;;;5088163;28;20020;-90
2023/07/01 06:40:37;;;;;;;9.13;2.95;;;17.60;99.90;;;;;;5088241;28;20059;-92
2023/07/01 06:43:09;;;;;;;13.25;2.95;;;17.60;99.90;;;;;;5088051;28;20485;-88
2023/07/01 06:45:36;;;;;;;6.65;3.10;;;17.70;99.90;;;;;;5087559;28;20115;-91
2023/07/01 06:48:04;;;;;;;5.65;2.65;;;17.60;99.90;;;;;;5083823;28;20028;-87
2023/07/01 06:50:30;;;;;;;13.63;3.25;;;17.60;99.90;;;;;;5084742;28;20099;-89
2023/07/01 06:52:55;;;;;;;6.93;2.80;;;17.60;99.90;;;;;;5086544;28;20047;-92
2023/07/01 06:55:21;;;;;;;6.25;2.85;;;17.60;99.90;;;;;;5082224;28;20055;-91
2023/07/01 06:57:46;;;;;;;7.68;2.40;;;17.70;99.90;;;;;;5084918;28;20025;-91
2023/07/01 07:00:13;;;;;;;14.20;3.90;;;17.70;99.90;;;;;;5069808;28;20034;-89
2023/07/01 07:02:39;;;;;;;6.38;2.83;;;17.70;99.90;;;;;;5082741;28;20048;-88
2023/07/01 07:05:11;;;;;;;6.45;2.75;;;17.70;99.90;;;;;;5083812;28;20024;-88
2023/07/01 07:07:40;;;;;;;6.07;2.80;;;17.70;99.90;;;;;;5081168;28;20048;-88
2023/07/01 07:10:06;;;;;;;9.93;3.25;;;17.70;99.90;;;;;;5084704;28;20036;-88
2023/07/01 07:12:31;;;;;;;15.02;2.95;;;17.80;99.90;;;;;;5086199;28;20059;-91
2023/07/01 07:14:57;;;;;;;10.60;2.80;;;17.80;99.90;;;;;;5084503;28;20044;-90
2023/07/01 07:17:24;;;;;;;3.97;2.47;;;17.80;99.90;;;;;;5080672;28;20455;-88
2023/07/01 07:19:49;;;;;;;10.07;3.45;;;17.80;99.90;;;;;;5084260;28;20036;-91
2023/07/01 07:22:15;;;;;;;5.07;2.95;;;17.90;99.90;;;;;;5077793;28;20032;-89
2023/07/01 07:24:40;;;;;;;11.48;3.33;;;18.00;99.90;;;;;;5068517;28;20026;-89
2023/07/01 07:27:12;;;;;;;8.85;3.25;;;18.10;99.90;;;;;;5081506;28;20028;-87
2023/07/01 07:29:38;;;;;;;7.78;3.45;;;18.20;99.90;;;;;;5077906;28;20035;-88
2023/07/01 07:32:04;;;;;;;10.10;3.20;;;18.20;99.90;;;;;;5084855;28;20048;-92
2023/07/01 07:34:30;;;;;;;8.10;3.25;;;18.20;99.90;;;;;;5078695;28;20024;-92
2023/07/01 07:36:56;;;;;;;7.05;2.72;;;18.20;99.90;;;;;;5083027;28;20103;-92
2023/07/01 07:39:22;;;;;;;15.45;2.75;;;18.10;99.90;;;;;;5079614;28;20024;-90
2023/07/01 07:41:49;;;;;;;9.52;3.03;;;18.10;99.90;;;;;;5082896;28;20043;-91
2023/07/01 07:44:15;;;;;;;10.35;3.42;;;18.10;99.90;;;;;;5080321;28;20028;-88
2023/07/01 07:46:42;;;;;;;13.75;3.15;;;18.10;99.90;;;;;;5080329;28;20028;-92
2023/07/01 07:49:10;;;;;;;8.45;2.42;;;18.10;99.90;;;;;;5086981;28;20036;-88
2023/07/01 07:51:36;;;;;;;6.00;2.80;;;18.20;99.90;;;;;;5076809;28;20538;-89
2023/07/01 07:54:03;;;;;;;15.70;3.95;;;18.20;99.90;;;;;;5083629;28;20484;-90
2023/07/01 07:56:28;;;;;;;9.63;2.85;;;18.30;99.90;;;;;;5078469;28;20036;-87
2023/07/01 07:58:54;;;;;;;10.10;3.22;;;18.30;99.90;;;;;;5080997;28;20094;-86
2023/07/01 08:01:19;;;;;;;12.32;3.13;;;18.40;99.90;;;;;;5081481;28;20070;-89
2023/07/01 08:03:45;;;;;;;8.02;3.10;;;18.40;99.90;;;;;;5081558;28;20080;-88
2023/07/01 08:06:17;;;;;;;13.48;4.00;;;18.40;99.90;;;;;;5087836;28;20047;-91
2023/07/01 08:08:42;;;;;;;10.40;3.45;;;18.30;99.90;;;;;;5085656;28;20024;-92
2023/07/01 08:11:11;;;;;;;7.18;2.70;;;18.50;99.90;;;;;;5077894;28;20039;-90
2023/07/01 08:13:37;;;;;;;12.18;3.83;;;18.40;99.90;;;;;;5080556;28;20031;-90
2023/07/01 08:16:05;;;;;;;4.80;3.55;;;18.50;99.90;;;;;;5083722;28;20328;-92
2023/07/01 08:18:31;;;;;;;12.32;3.25;;;18.60;99.90;;;;;;5082792;28;20044;-87
2023/07/01 08:20:58;;;;;;;8.00;3.33;;;18.60;99.90;;;;;;5084757;28;20457;-87
2023/07/01 08:23:24;;;;;;;5.13;2.80;;;18.70;99.90;;;;;;5081525;28;20020;-87
2023/07/01 08:25:49;;;;;;;8.82;2.72;;;18.80;99.90;;;;;;5082394;28;20499;-89
2023/07/01 08:28:15;;;;;;;10.30;3.00;;;18.80;99.90;;;;;;5077085;28;20032;-88
2023/07/01 08:30:40;;;;;;;9.65;3.42;;;18.90;99.90;;;;;;5086155;28;20067;-93
2023/07/01 08:33:06;;;;;;;7.00;2.90;;;19.00;99.90;;;;;;5080091;28;20051;-90
2023/07/01 08:35:31;;;;;;;7.00;2.65;;;19.00;99.90;;;;;;5082954;28;20028;-93
2023/07/01 08:37:57;;;;;;;7.88;2.95;;;19.10;99.90;;;;;;5082349;28;20294;-92
2023/07/01 08:40:22;;;;;;;7.88;2.97;;;19.10;99.90;;;;;;5094631;28;20097;-92
2023/07/01 08:42:50;;;;;;;5.75;2.25;;;19.20;99.90;;;;;;5086835;28;20416;-88
2023/07/01 08:45:24;;;;;;;7.97;2.67;;;19.30;99.90;;;;;;5083543;28;20028;-93
2023/07/01 08:47:53;;;;;;;7.90;2.90;;;19.40;99.90;;;;;;5074841;28;20025;-87
2023/07/01 08:50:23;;;;;;;5.28;2.40;;;19.50;99.90;;;;;;5079179;28;20559;-89
2023/07/01 08:52:57;;;;;;;6.38;2.13;;;19.60;99.90;;;;;;5080467;28;20032;-86
2023/07/01 08:55:23;;;;;;;9.38;2.22;;;19.60;99.90;;;;;;5081971;28;20036;-87
2023/07/01 08:57:49;;;;;;;15.32;3.47;;;19.60;99.90;;;;;;5080657;28;20123;-91
2023/07/01 09:00:17;;;;;;;5.30;1.90;;;19.60;99.90;;;;;;5082086;28;20461;-87
2023/07/01 09:02:44;;;;;;;15.50;2.03;;;19.70;99.90;;;;;;5078053;28;20152;-85
2023/07/01 09:05:09;;;;;;;12.32;2.85;;;19.60;99.90;;;;;;5079877;28;20059;-92
2023/07/01 09:07:35;;;;;;;4.22;2.28;;;19.70;99.90;;;;;;5076934;28;20469;-87
2023/07/01 09:10:00;;;;;;;2.75;1.65;;;19.80;99.90;;;;;;5083135;28;20038;-87
2023/07/01 09:12:27;;;;;;;10.23;2.17;;;19.80;99.90;;;;;;5078424;28;20055;-83
2023/07/01 09:15:16;;;;;;;9.23;1.77;;;19.90;99.90;;;;;;5081680;28;20040;-86
2023/07/01 09:17:42;;;;;;;18.48;2.25;;;19.90;99.90;;;;;;5080565;28;20490;-90
2023/07/01 09:20:13;;;;;;;5.88;1.70;;;20.00;99.90;;;;;;5081943;28;20021;-83
2023/07/01 09:22:41;;;;;;;6.95;2.05;;;20.00;99.90;;;;;;5079886;28;20043;-84
2023/07/01 09:25:07;;;;;;;9.43;2.20;;;20.00;99.90;;;;;;5080071;28;20020;-85
2023/07/01 09:27:59;;;;;;;4.28;1.98;;;19.90;99.90;;;;;;5078594;28;20028;-85
2023/07/01 09:30:28;;;;;;;5.30;1.70;;;19.90;99.90;;;;;;5076334;28;20048;-88
2023/07/01 09:33:17;;;;;;;5.30;1.83;;;19.80;99.90;;;;;;5070525;28;20052;-86
2023/07/01 09:35:44;;;;;;;9.85;2.63;;;19.80;99.90;;;;;;5082327;28;20036;-83
2023/07/01 09:38:16;;;;;;;12.45;2.60;;;19.80;99.90;;;;;;5078946;28;20028;-86
2023/07/01 09:40:42;;;;;;;6.70;2.15;;;19.80;99.90;;;;;;5082751;28;20059;-85
2023/07/01 09:43:08;;;;;;;7.57;1.67;;;19.80;99.90;;;;;;5078381;28;20052;-86
2023/07/01 09:45:33;;;;;;;9.50;2.03;;;19.70;99.90;;;;;;5081823;28;20104;-85
2023/07/01 09:48:10;;;;;;;15.23;2.30;;;19.70;99.90;;;;;;5086207;28;20051;-85
2023/07/01 09:50:36;;;;;;;5.90;1.70;;;19.70;99.90;;;;;;5085013;28;20043;-85
2023/07/01 09:53:01;;;;;;;6.03;2.00;;;19.60;99.90;;;;;;5078283;28;20037;-84
2023/07/01 09:55:27;;;;;;;7.38;2.30;;;19.70;99.90;;;;;;5085299;28;20035;-84
2023/07/01 09:57:53;;;;;;;6.00;2.08;;;19.60;99.90;;;;;;5081862;28;20399;-85
2023/07/01 10:00:20;;;;;;;12.00;2.10;;;19.70;99.90;;;;;;5082249;28;20024;-83
2023/07/01 10:02:46;;;;;;;5.65;1.90;;;19.60;99.90;;;;;;5083161;28;20036;-85
2023/07/01 10:05:13;;;;;;;9.63;2.63;;;19.60;99.90;;;;;;5058542;28;20236;-83
2023/07/01 10:07:40;;;;;;;5.18;2.42;;;19.60;99.90;;;;;;5066239;28;20419;-84
2023/07/01 10:10:21;;;;;;;13.45;2.53;;;19.60;99.90;;;;;;5084450;28;20051;-85
2023/07/01 10:12:48;;;;;;;7.75;2.40;;;19.60;99.90;;;;;;5082660;28;20318;-85
2023/07/01 10:15:26;;;;;;;9.25;2.20;;;19.50;99.90;;;;;;5084517;28;20050;-83
2023/07/01 10:17:54;;;;;;;8.23;1.92;;;19.50;99.90;;;;;;5081270;28;20029;-84
2023/07/01 10:20:30;;;;;;;12.32;2.40;;;19.60;99.90;;;;;;5080003;28;20047;-85
2023/07/01 10:23:01;;;;;;;5.32;2.10;;;19.50;99.90;;;;;;5079418;28;20027;-84
2023/07/01 10:25:38;;;;;;;6.45;2.20;;;19.50;99.90;;;;;;5080605;28;20035;-84
2023/07/01 10:28:06;;;;;;;8.10;2.63;;;19.50;99.90;;;;;;5081870;28;20031;-88
2023/07/01 10:30:55;;;;;;;4.57;2.15;;;19.50;99.90;;;;;;5065280;28;20039;-88
2023/07/01 10:33:39;;;;;;;8.10;2.38;;;19.50;99.90;;;;;;5067302;28;20048;-83
2023/07/01 10:36:06;;;;;;;8.95;2.53;;;19.50;99.90;;;;;;5078355;28;20107;-83
2023/07/01 10:38:33;;;;;;;5.45;2.35;;;19.50;99.90;;;;;;5079449;28;20077;-83
2023/07/01 10:40:59;;;;;;;10.38;2.40;;;19.60;99.90;;;;;;5078766;28;20037;-85
2023/07/01 10:43:31;;;;;;;3.88;2.20;;;19.60;99.90;;;;;;5064863;28;20031;-84
2023/07/01 10:46:14;;;;;;;8.20;2.53;;;19.60;99.90;;;;;;5082497;28;20036;-85
2023/07/01 10:48:43;;;;;;;9.15;3.20;;;19.50;99.90;;;;;;5079934;28;20031;-85
2023/07/01 10:51:15;;;;;;;9.82;2.85;;;19.50;99.90;;;;;;5081495;28;20526;-85
2023/07/01 10:54:00;;;;;;;7.50;2.55;;;19.50;99.90;;;;;;5083292;28;20032;-85
2023/07/01 10:56:31;;;;;;;17.35;3.08;;;19.50;99.90;;;;;;5066674;28;20097;-90
2023/07/01 10:59:21;;;;;;;7.53;2.25;;;19.60;99.90;;;;;;5084831;28;20025;-85
2023/07/01 11:01:51;;;;;;;5.88;2.90;;;19.60;99.90;;;;;;5084001;28;20512;-85
2023/07/01 11:04:18;;;;;;;10.52;3.13;;;19.60;99.90;;;;;;5084006;28;20067;-85
2023/07/01 11:06:51;;;;;;;7.07;2.88;;;19.60;99.90;;;;;;5085310;28;20525;-86
2023/07/01 11:09:32;;;;;;;6.85;3.03;;;19.70;99.90;;;;;;5076579;28;20506;-84
2023/07/01 11:12:00;;;;;;;11.40;2.70;;;19.70;99.90;;;;;;5079988;28;20058;-85
2023/07/01 11:14:31;;;;;;;7.05;2.55;;;19.80;99.90;;;;;;5080347;28;20043;-85
2023/07/01 11:17:07;;;;;;;9.55;2.80;;;19.90;99.90;;;;;;5080106;28;20380;-84
2023/07/01 11:19:33;;;;;;;6.10;2.38;;;19.90;99.90;;;;;;5083179;28;20121;-85
2023/07/01 11:22:01;;;;;;;5.90;3.10;;;19.90;99.90;;;;;;5089096;28;20028;-83
2023/07/01 11:24:28;;;;;;;12.98;2.90;;;19.90;99.90;;;;;;5084166;28;20028;-83
2023/07/01 11:27:03;;;;;;;8.18;2.63;;;20.00;99.90;;;;;;5083626;28;20028;-86
2023/07/01 11:29:29;;;;;;;12.77;2.83;;;20.00;99.90;;;;;;5084123;28;20040;-82
2023/07/01 11:32:19;;;;;;;6.50;2.92;;;20.10;99.90;;;;;;5087368;28;20039;-84
2023/07/01 11:34:56;;;;;;;8.38;2.65;;;20.10;99.90;;;;;;5076033;28;20032;-87
2023/07/01 11:37:24;;;;;;;6.68;2.90;;;20.00;99.90;;;;;;5083775;28;20119;-83
2023/07/01 11:39:49;;;;;;;4.53;2.30;;;20.10;99.90;;;;;;5079635;28;20385;-88
2023/07/01 11:42:25;;;;;;;10.63;2.60;;;20.00;99.90;;;;;;5088442;28;20095;-85
2023/07/01 11:44:53;;;;;;;;;;;20.00;99.90;;;;;;5077495;28;20032;-86
2023/07/01 11:47:19;;;;;;;8.02;3.30;;;20.00;99.90;;;;;;5081448;28;19927;-86
2023/07/01 11:49:45;;;;;;;11.35;3.25;;;20.00;99.90;;;;;;5081068;28;20032;-84
2023/07/01 11:52:24;;;;;;;13.38;2.65;;;20.10;99.90;;;;;;5082440;28;20031;-83
2023/07/01 11:54:54;;;;;;;8.65;2.85;;;20.10;99.90;;;;;;5078701;28;20028;-86
2023/07/01 11:57:21;;;;;;;7.95;2.80;;;20.10;99.90;;;;;;5081396;28;20044;-85
2023/07/01 11:59:48;;;;;;;16.80;2.97;;;20.10;99.90;;;;;;5057297;28;20450;-83
2023/07/01 12:02:32;;;;;;;9.75;3.28;;;20.10;99.90;;;;;;5081109;28;20384;-86
2023/07/01 12:04:58;;;;;;;4.85;3.03;;;20.10;99.90;;;;;;5082535;28;20020;-86
2023/07/01 12:07:23;;;;;;;7.93;3.00;;;20.10;99.90;;;;;;5079476;28;20024;-85
2023/07/01 12:09:50;;;;;;;12.40;3.05;;;20.10;99.90;;;;;;5083047;28;20040;-85
2023/07/01 12:12:17;;;;;;;6.65;2.47;;;20.10;99.90;;;;;;5080426;28;20024;-84
2023/07/01 12:14:43;;;;;;;5.57;2.63;;;20.20;99.90;;;;;;5068680;28;20302;-94
2023/07/01 12:17:25;;;;;;;6.07;2.95;;;20.30;99.90;;;;;;5081626;28;20088;-85
2023/07/01 12:19:51;;;;;;;14.20;3.00;;;20.30;99.90;;;;;;5083537;28;20028;-85
2023/07/01 12:22:16;;;;;;;7.60;2.75;;;20.30;99.90;;;;;;5063338;28;20035;-82
2023/07/01 12:24:42;;;;;;;5.25;2.60;;;20.30;99.90;;;;;;5076770;28;20335;-84
2023/07/01 12:27:07;;;;;;;5.95;3.00;;;20.30;99.90;;;;;;5083581;28;20024;-86
2023/07/01 12:29:33;;;;;;;6.28;2.67;;;20.30;99.90;;;;;;5079513;28;20048;-86
2023/07/01 12:31:58;;;;;;;9.43;2.63;;;20.30;99.90;;;;;;5083965;28;20117;-85
2023/07/01 12:34:25;;;;;;;6.10;2.75;;;20.30;99.90;;;;;;5082097;28;20036;-86
2023/07/01 12:36:54;;;;;;;6.18;2.80;;;20.30;99.90;;;;;;5085760;28;20032;-82
2023/07/01 12:39:25;;;;;;;7.05;2.92;;;20.30;99.90;;;;;;5090395;28;20051;-85
2023/07/01 12:41:58;;;;;;;7.90;2.97;;;20.30;99.90;;;;;;5086653;28;20093;-84
2023/07/01 12:44:26;;;;;;;6.88;2.65;;;20.30;99.90;;;;;;5093568;28;20024;-84
2023/07/01 12:46:52;;;;;;;9.00;3.05;;;20.20;99.90;;;;;;5084823;28;20031;-84
2023/07/01 12:49:19;;;;;;;8.70;3.33;;;20.20;99.90;;;;;;5082092;28;20012;-83
2023/07/01 12:51:44;;;;;;;7.28;2.65;;;20.10;99.90;;;;;;5081525;28;20459;-84